Архив погоды в Сасово

Метеограмма Сасово
Вторник, 25 Июня
Время местн. Темп Ветер Видим Явления Облачность нижн/средн/верх Атм. давл. Влжн Точка росы ВНГО R Сост. почвы Tg s
Напр Скр Прв ур.ст ур.м изм
06:00 +14.1° С 3 - 20 км - переменная облачность 758 768 +0.8 67% +8.1° - - Влажная (без луж) - -
03:00 +12.8° С 2 - 20 км - переменная облачность 757 768 +0.5 68% +7° - - - - -
00:00 +15.1° С 2 - 10 км - переменная облачность 757 767 +1.1 63% +8.2° - - - - -
Понедельник, 24 Июня
Время местн. Темп Ветер Видим Явления Облачность нижн/средн/верх Атм. давл. Влжн Точка росы ВНГО R Сост. почвы Tg s
Напр Скр Прв ур.ст ур.м изм
21:00 +19.4° С 2 - 20 км - переменная облачность 756 766 +0.8 55% +10.2° - - - - -
18:00 +23.9° С 2 - 20 км - переменная облачность 755 765 -0.3 40% +9.6° 1.5 км - - - -
15:00 +23.9° С 4 - 20 км - переменная облачность 755 765 0 40% +9.6° 1.5 км - - - -
12:00 +20.9° С 4 - 20 км - облачно 755 765 -0.4 63% +13.7° 1 км - - - -
09:00 +15.6° С 4 - 20 км небо без изменений {гроза, ливневые осадки} облачно 756 766 +0.8 87% +13.5° 300 м - - - -
06:00 +15° С-В 3 - 20 км слабая или умеренная гроза с осадками облачно 755 765 -0.2 93% +13.9° 1.5 км - Влажная (без луж) - -
03:00 +19.5° З,С-З 12 15 20 км - облачно 755 765 +1.5 65% +12.7° - - - - -
00:00 +20.7° С 2 - 10 км - облачно 753 763 +0.2 73% +15.6° - - - - -
Воскресенье, 23 Июня
Время местн. Темп Ветер Видим Явления Облачность нижн/средн/верх Атм. давл. Влжн Точка росы ВНГО R Сост. почвы Tg s
Напр Скр Прв ур.ст ур.м изм
21:00 +24.9° С 2 - 40 км - облачно 753 763 +0.5 57% +15.7° - - - - -
18:00 +30.7° С,С-З 2 - 20 км - облачно 753 762 -0.3 37% +14.3° 1.5 км - - - -
15:00 +32.1° С-З 3 - 20 км - облачно 753 763 -0.3 33% +13.7° 1.5 км - - - -
12:00 +31.6° З 2 - 20 км - переменная облачность 753 763 -0.9 33% +13.3° 1.5 км - - - -
09:00 +28.4° Ю-З 1 - 20 км - переменная облачность 754 764 +0.8 45% +15.2° - - - - -
06:00 +21.3° Ю 1 - 20 км - переменная облачность 753 763 +0.4 61% +13.6° 1.5 км - Сухая (без трещин) - -
03:00 +19° Ю 2 - 20 км - облачно с прояснениями 753 763 +0.2 67% +12.8° - - - - -
00:00 +20.5° Ю 1 - 10 км - переменная облачность 753 763 +0.3 63% +13.2° более 2.5 км - - - -
Суббота, 22 Июня
Время местн. Темп Ветер Видим Явления Облачность нижн/средн/верх Атм. давл. Влжн Точка росы ВНГО R Сост. почвы Tg s
Напр Скр Прв ур.ст ур.м изм
21:00 +25.1° Ю,Ю-З 1 - 20 км - переменная облачность 753 762 0 47% +13.1° более 2.5 км - - - -
18:00 +31.7° З,Ю-З 1 - 20 км - переменная облачность 753 762 -0.7 27% +10.3° более 2.5 км - - - -
15:00 +31.2° З 1 - 20 км - переменная облачность 753 763 -0.6 28% +10.4° 1.5 км - - - -
12:00 +31.8° Ю-З 2 - 20 км - переменная облачность 754 763 -0.2 27% +10.3° 1.5 км - - - -
09:00 +28.4° Ю,Ю-З 2 - 20 км - облачно с прояснениями 754 764 +0.1 39% +13.3° более 2.5 км - - - -
06:00 +19.2° Ю 2 - 9 км дымка облачно с прояснениями 754 764 +0.3 70% +13.5° - - Сухая (без трещин) - -
03:00 +17.4° Ю 1 - 20 км - облачно с прояснениями 754 764 +0.1 76% +13.2° - - - - -